Terminal Aerodrome Forecast
Issued by NWS Melbourne, FL

Home | Current Version | Previous Version | Text Only | Print | Product List | Glossary On
Versions: 1 2 3 4 5 6 7 8 9 10 11 12
134
FTUS42 KMLB 271120
TAFMLB
TAF
KMLB 271120Z 2712/2812 19006KT P6SM FEW025
     FM271400 18009KT P6SM FEW040
     FM271700 14014G22KT P6SM FEW050=

USA.gov is the U.S. government's official web portal to all federal, state and local government web resources and services.